Time;durP1;ratioP1;P1;durP2;ratioP2;P2;SDS_P1;SDS_P2;PMS_P1;PMS_P2;Temp;Humidity;BMP_temperature;BMP_pressure;BME280_temperature;BME280_humidity;BME280_pressure;Samples;Min_cycle;Max_cycle;Signal;HPM_P1;HPM_P2
2024/03/12 00:00:58;;;;;;;12.45;7.32;;;;;;;;;;5069251;28;20037;-56
2024/03/12 00:03:27;;;;;;;12.45;7.35;;;;;;;;;;5068572;28;20071;-55
2024/03/12 00:05:55;;;;;;;12.43;7.43;;;;;;;;;;5054164;28;20536;-56
2024/03/12 00:08:21;;;;;;;12.10;7.10;;;;;;;;;;5073058;28;20021;-55
2024/03/12 00:10:47;;;;;;;12.10;7.10;;;;;;;;;;5072900;28;20410;-53
2024/03/12 00:13:13;;;;;;;11.60;6.80;;;;;;;;;;5068725;28;20051;-54
2024/03/12 00:15:39;;;;;;;11.50;6.78;;;;;;;;;;5069714;28;20033;-53
2024/03/12 00:18:05;;;;;;;12.00;7.20;;;;;;;;;;5069838;28;20593;-51
2024/03/12 00:20:33;;;;;;;12.10;7.15;;;;;;;;;;5069532;28;20066;-53
2024/03/12 00:23:00;;;;;;;12.02;7.10;;;;;;;;;;5068528;28;20029;-56
2024/03/12 00:25:26;;;;;;;12.43;7.25;;;;;;;;;;5059594;28;20021;-58
2024/03/12 00:27:54;;;;;;;12.55;7.30;;;;;;;;;;5049290;28;20017;-55
2024/03/12 00:30:25;;;;;;;12.30;7.20;;;;;;;;;;5049665;28;20028;-56
2024/03/12 00:32:51;;;;;;;12.02;7.03;;;;;;;;;;5048874;28;20056;-53
2024/03/12 00:35:17;;;;;;;12.07;7.07;;;;;;;;;;5049853;28;20055;-53
2024/03/12 00:37:45;;;;;;;12.18;7.10;;;;;;;;;;5049400;28;20745;-56
2024/03/12 00:40:11;;;;;;;;;;;;;;;;;;5049475;28;20033;-54
2024/03/12 00:42:55;;;;;;;14.55;10.50;;;;;;;;;;5048300;28;19923;-52
2024/03/12 00:45:25;;;;;;;11.65;6.80;;;;;;;;;;5049268;28;20467;-53
2024/03/12 00:47:53;;;;;;;11.73;6.93;;;;;;;;;;5048972;28;20017;-53
2024/03/12 00:50:21;;;;;;;11.60;6.82;;;;;;;;;;5031758;28;20025;-57
2024/03/12 00:52:52;;;;;;;12.05;7.55;;;;;;;;;;5069099;28;20139;-53
2024/03/12 00:55:20;;;;;;;11.52;6.72;;;;;;;;;;5085844;22;20044;-57
2024/03/12 00:57:48;;;;;;;12.02;7.00;;;;;;;;;;5070602;28;20028;-55
2024/03/12 01:00:19;;;;;;;11.82;6.93;;;;;;;;;;5051101;28;20033;-57
2024/03/12 01:02:48;;;;;;;11.52;6.80;;;;;;;;;;5069415;28;20059;-55
2024/03/12 01:05:15;;;;;;;12.05;7.07;;;;;;;;;;5052129;28;20030;-54
2024/03/12 01:07:41;;;;;;;11.48;6.78;;;;;;;;;;5070402;28;20373;-58
2024/03/12 01:10:08;;;;;;;12.45;7.30;;;;;;;;;;5069944;28;20498;-56
2024/03/12 01:12:33;;;;;;;12.88;7.50;;;;;;;;;;5069438;28;20555;-55
2024/03/12 01:14:59;;;;;;;12.90;7.60;;;;;;;;;;5070437;28;20104;-58
2024/03/12 01:17:25;;;;;;;13.00;7.60;;;;;;;;;;5070501;28;20020;-56
2024/03/12 01:19:51;;;;;;;12.95;7.60;;;;;;;;;;5070487;28;20035;-56
2024/03/12 01:22:17;;;;;;;12.63;7.40;;;;;;;;;;5069445;28;20029;-59
2024/03/12 01:24:43;;;;;;;12.90;7.55;;;;;;;;;;5070386;28;20443;-56
2024/03/12 01:27:10;;;;;;;13.02;7.63;;;;;;;;;;5070433;28;20059;-57
2024/03/12 01:29:37;;;;;;;12.80;7.43;;;;;;;;;;5070422;28;20028;-54
2024/03/12 01:32:09;;;;;;;14.02;9.20;;;;;;;;;;5070010;28;20024;-57
2024/03/12 01:34:35;;;;;;;12.30;7.20;;;;;;;;;;5069976;28;20071;-61
2024/03/12 01:37:04;;;;;;;12.38;7.20;;;;;;;;;;5070071;28;20016;-54
2024/03/12 01:39:38;;;;;;;12.50;7.32;;;;;;;;;;5069499;28;20036;-58
2024/03/12 01:42:05;;;;;;;12.52;7.40;;;;;;;;;;5070185;28;20020;-56
2024/03/12 01:44:34;;;;;;;12.30;7.13;;;;;;;;;;5069556;28;20410;-60
2024/03/12 01:47:01;;;;;;;12.85;7.47;;;;;;;;;;5070057;28;20421;-58
2024/03/12 01:49:27;;;;;;;12.13;7.10;;;;;;;;;;5070026;28;20040;-59
2024/03/12 01:51:53;;;;;;;12.40;7.20;;;;;;;;;;5069806;28;20024;-57
2024/03/12 01:54:20;;;;;;;12.20;7.20;;;;;;;;;;5069504;28;20624;-57
2024/03/12 01:56:47;;;;;;;12.10;7.10;;;;;;;;;;5052099;28;20101;-58
2024/03/12 01:59:15;;;;;;;12.13;7.13;;;;;;;;;;5051982;28;20036;-55
2024/03/12 02:01:41;;;;;;;14.90;10.57;;;;;;;;;;5069375;28;20138;-59
2024/03/12 02:04:09;;;;;;;13.02;8.02;;;;;;;;;;5069267;28;20856;-57
2024/03/12 02:06:35;;;;;;;12.48;7.60;;;;;;;;;;5069567;28;20048;-59
2024/03/12 02:09:03;;;;;;;12.77;7.72;;;;;;;;;;5069552;28;20111;-56
2024/03/12 02:11:29;;;;;;;12.75;7.47;;;;;;;;;;5069304;28;20020;-58
2024/03/12 02:13:55;;;;;;;14.40;9.35;;;;;;;;;;5050937;28;20105;-58
2024/03/12 02:16:21;;;;;;;12.95;8.02;;;;;;;;;;5051607;28;20032;-58
2024/03/12 02:18:47;;;;;;;13.82;9.07;;;;;;;;;;5069579;28;20066;-59
2024/03/12 02:21:13;;;;;;;13.10;7.80;;;;;;;;;;5069549;28;20052;-58
2024/03/12 02:23:39;;;;;;;12.88;7.47;;;;;;;;;;5051119;28;20515;-60
2024/03/12 02:26:06;;;;;;;14.18;8.45;;;;;;;;;;5069529;28;20380;-57
2024/03/12 02:28:32;;;;;;;12.80;7.55;;;;;;;;;;5069710;28;20121;-55
2024/03/12 02:30:58;;;;;;;12.85;7.50;;;;;;;;;;5051396;28;20052;-56
2024/03/12 02:33:24;;;;;;;12.93;7.55;;;;;;;;;;5050874;28;20051;-59
2024/03/12 02:35:51;;;;;;;13.82;7.80;;;;;;;;;;5069316;28;20517;-55
2024/03/12 02:38:18;;;;;;;12.68;7.43;;;;;;;;;;5069215;28;20031;-58
2024/03/12 02:40:45;;;;;;;12.15;7.18;;;;;;;;;;5069319;28;20371;-54
2024/03/12 02:43:11;;;;;;;12.30;7.20;;;;;;;;;;5050178;28;20060;-57
2024/03/12 02:45:38;;;;;;;13.15;8.15;;;;;;;;;;5069103;28;20044;-56
2024/03/12 02:48:05;;;;;;;19.93;11.63;;;;;;;;;;5051492;28;20025;-58
2024/03/12 02:50:31;;;;;;;12.75;8.35;;;;;;;;;;5068733;28;20051;-53
2024/03/12 02:52:58;;;;;;;14.25;9.57;;;;;;;;;;5068274;28;20483;-58
2024/03/12 02:55:24;;;;;;;12.27;7.10;;;;;;;;;;5068648;28;20039;-56
2024/03/12 02:57:50;;;;;;;12.40;7.20;;;;;;;;;;5068825;28;20025;-58
2024/03/12 03:00:17;;;;;;;17.30;8.77;;;;;;;;;;5050874;28;20394;-60
2024/03/12 03:02:43;;;;;;;12.68;7.82;;;;;;;;;;5068276;28;20464;-57
2024/03/12 03:05:09;;;;;;;12.30;7.30;;;;;;;;;;5050936;28;20029;-55
2024/03/12 03:07:36;;;;;;;11.73;6.90;;;;;;;;;;5068598;28;20044;-59
2024/03/12 03:10:03;;;;;;;13.68;8.13;;;;;;;;;;5068606;28;20496;-57
2024/03/12 03:12:29;;;;;;;12.55;8.20;;;;;;;;;;5067666;28;20035;-58
2024/03/12 03:14:55;;;;;;;11.43;6.70;;;;;;;;;;5068894;28;20024;-55
2024/03/12 03:17:21;;;;;;;11.60;6.80;;;;;;;;;;5068446;28;20021;-56
2024/03/12 03:19:50;;;;;;;11.98;6.97;;;;;;;;;;5068815;28;20028;-56
2024/03/12 03:22:17;;;;;;;12.88;7.53;;;;;;;;;;5049876;28;20029;-54
2024/03/12 03:24:43;;;;;;;11.57;6.80;;;;;;;;;;5068568;28;20025;-57
2024/03/12 03:27:09;;;;;;;12.05;7.03;;;;;;;;;;5068500;28;20059;-58
2024/03/12 03:29:36;;;;;;;12.13;7.60;;;;;;;;;;5068627;28;20108;-55
2024/03/12 03:32:02;;;;;;;11.70;6.85;;;;;;;;;;5068050;28;20100;-55
2024/03/12 03:34:29;;;;;;;11.90;7.20;;;;;;;;;;5068167;28;20448;-55
2024/03/12 03:36:55;;;;;;;13.25;9.27;;;;;;;;;;5068615;28;20107;-58
2024/03/12 03:39:24;;;;;;;11.68;6.90;;;;;;;;;;5068545;28;20344;-59
2024/03/12 03:41:50;;;;;;;11.93;7.00;;;;;;;;;;5068040;28;20418;-56
2024/03/12 03:44:17;;;;;;;11.70;6.90;;;;;;;;;;5050103;28;20060;-56
2024/03/12 03:46:43;;;;;;;12.70;7.60;;;;;;;;;;5068464;28;20150;-55
2024/03/12 03:49:10;;;;;;;13.70;8.45;;;;;;;;;;5068422;28;20071;-56
2024/03/12 03:51:36;;;;;;;12.00;7.00;;;;;;;;;;5068157;28;20031;-58
2024/03/12 03:54:02;;;;;;;11.75;6.85;;;;;;;;;;5067934;28;20115;-57
2024/03/12 03:56:28;;;;;;;11.75;6.85;;;;;;;;;;5068024;28;20511;-56
2024/03/12 03:58:57;;;;;;;15.00;10.00;;;;;;;;;;5050369;28;20401;-53
2024/03/12 04:01:24;;;;;;;12.70;7.85;;;;;;;;;;5068933;28;20544;-60
2024/03/12 04:03:52;;;;;;;12.60;7.50;;;;;;;;;;5071310;28;20024;-57
2024/03/12 04:06:22;;;;;;;12.30;7.20;;;;;;;;;;5071727;28;20100;-57
2024/03/12 04:08:53;;;;;;;19.65;13.10;;;;;;;;;;5071757;28;20020;-56
2024/03/12 04:11:20;;;;;;;13.18;9.38;;;;;;;;;;5053435;28;20553;-59
2024/03/12 04:13:50;;;;;;;12.30;7.63;;;;;;;;;;5071519;28;20507;-59
2024/03/12 04:16:16;;;;;;;12.75;7.95;;;;;;;;;;5071658;28;20040;-57
2024/03/12 04:18:44;;;;;;;11.52;6.78;;;;;;;;;;5053918;28;20044;-58
2024/03/12 04:21:12;;;;;;;16.33;11.20;;;;;;;;;;5071466;28;20025;-58
2024/03/12 04:23:39;;;;;;;20.10;11.25;;;;;;;;;;5053481;28;20425;-56
2024/03/12 04:26:05;;;;;;;13.20;8.50;;;;;;;;;;5071240;28;20021;-57
2024/03/12 04:28:31;;;;;;;19.17;9.52;;;;;;;;;;5071783;28;20502;-54
2024/03/12 04:30:57;;;;;;;11.38;6.82;;;;;;;;;;5071447;28;20029;-58
2024/03/12 04:33:26;;;;;;;15.07;9.30;;;;;;;;;;5070733;28;20021;-57
2024/03/12 04:35:52;;;;;;;12.57;8.07;;;;;;;;;;5071276;28;20029;-54
2024/03/12 04:38:18;;;;;;;22.98;15.32;;;;;;;;;;5071574;28;20035;-56
2024/03/12 04:40:47;;;;;;;14.60;9.82;;;;;;;;;;5053583;28;20635;-57
2024/03/12 04:43:13;;;;;;;13.65;9.13;;;;;;;;;;5052625;28;20063;-55
2024/03/12 04:45:43;;;;;;;19.73;9.60;;;;;;;;;;5070717;28;20032;-57
2024/03/12 04:48:11;;;;;;;17.83;9.02;;;;;;;;;;5071114;28;20035;-55
2024/03/12 04:50:37;;;;;;;13.37;8.50;;;;;;;;;;5071318;28;20023;-57
2024/03/12 04:53:03;;;;;;;12.82;8.20;;;;;;;;;;5052551;28;20364;-55
2024/03/12 04:55:29;;;;;;;19.63;10.05;;;;;;;;;;5070818;28;20032;-56
2024/03/12 04:57:55;;;;;;;13.70;8.18;;;;;;;;;;5071136;28;20021;-57
2024/03/12 05:00:21;;;;;;;26.10;15.90;;;;;;;;;;5070934;28;20039;-58
2024/03/12 05:02:51;;;;;;;19.25;12.25;;;;;;;;;;5052225;28;20115;-54
2024/03/12 05:05:19;;;;;;;15.15;9.27;;;;;;;;;;5070870;28;20394;-59
2024/03/12 05:07:45;;;;;;;15.70;10.93;;;;;;;;;;5070809;28;20051;-56
2024/03/12 05:10:11;;;;;;;16.85;11.27;;;;;;;;;;5070771;28;20013;-58
2024/03/12 05:12:37;;;;;;;13.80;8.27;;;;;;;;;;5069876;28;20029;-56
2024/03/12 05:15:04;;;;;;;13.95;9.55;;;;;;;;;;5070413;28;20119;-52
2024/03/12 05:17:30;;;;;;;12.60;8.02;;;;;;;;;;5070821;28;20389;-60
2024/03/12 05:19:56;;;;;;;13.02;9.18;;;;;;;;;;5070542;28;20107;-61
2024/03/12 05:22:23;;;;;;;15.35;8.55;;;;;;;;;;5069635;28;20208;-59
2024/03/12 05:24:50;;;;;;;13.00;8.05;;;;;;;;;;5070291;28;20020;-59
2024/03/12 05:27:23;;;;;;;20.75;11.90;;;;;;;;;;5069447;28;20029;-57
2024/03/12 05:29:53;;;;;;;14.13;8.15;;;;;;;;;;5070565;28;20386;-59
2024/03/12 05:32:21;;;;;;;12.90;8.23;;;;;;;;;;5070083;28;20113;-59
2024/03/12 05:34:47;;;;;;;12.40;7.30;;;;;;;;;;5052565;28;20509;-56
2024/03/12 05:37:29;;;;;;;13.13;7.93;;;;;;;;;;5070229;28;20632;-55
2024/03/12 05:40:12;;;;;;;13.13;8.95;;;;;;;;;;5052388;28;20025;-57
2024/03/12 05:48:09;;;;;;;21.10;11.57;;;;;;;;;;5070239;28;20036;-59
2024/03/12 05:50:37;;;;;;;11.70;6.93;;;;;;;;;;5070555;28;20016;-58
2024/03/12 05:53:03;;;;;;;11.60;6.80;;;;;;;;;;5069673;28;20479;-56
2024/03/12 05:55:29;;;;;;;15.60;8.75;;;;;;;;;;5069974;28;20032;-56
2024/03/12 05:57:55;;;;;;;13.23;9.20;;;;;;;;;;5069994;28;20028;-59
2024/03/12 06:00:21;;;;;;;11.75;7.35;;;;;;;;;;5070123;28;20074;-56
2024/03/12 06:02:47;;;;;;;11.82;6.90;;;;;;;;;;5068891;28;20025;-56
2024/03/12 06:05:13;;;;;;;14.15;8.68;;;;;;;;;;5069908;28;20032;-57
2024/03/12 06:07:41;;;;;;;11.80;6.97;;;;;;;;;;5070273;28;20512;-57
2024/03/12 06:10:07;;;;;;;16.15;9.70;;;;;;;;;;5070329;28;20501;-56
2024/03/12 06:12:33;;;;;;;23.17;12.93;;;;;;;;;;5068762;28;20054;-57
2024/03/12 06:14:59;;;;;;;36.05;13.63;;;;;;;;;;5069177;28;20448;-61
2024/03/12 06:17:26;;;;;;;11.57;6.78;;;;;;;;;;5069600;28;20095;-57
2024/03/12 06:19:52;;;;;;;12.68;8.45;;;;;;;;;;5069278;28;20020;-56
2024/03/12 06:22:18;;;;;;;20.42;9.23;;;;;;;;;;5050382;28;20509;-59
2024/03/12 06:24:47;;;;;;;12.38;7.63;;;;;;;;;;5069274;28;20575;-56
2024/03/12 06:27:13;;;;;;;16.88;9.15;;;;;;;;;;5069255;28;20115;-55
2024/03/12 06:29:39;;;;;;;11.00;6.43;;;;;;;;;;5069208;28;20072;-58
2024/03/12 06:32:06;;;;;;;17.88;8.25;;;;;;;;;;5068663;28;20025;-56
2024/03/12 06:34:32;;;;;;;28.60;21.70;;;;;;;;;;5068511;28;20028;-58
2024/03/12 06:36:58;;;;;;;11.95;7.00;;;;;;;;;;5050765;28;20490;-55
2024/03/12 06:39:31;;;;;;;14.13;9.02;;;;;;;;;;5068810;28;20506;-58
2024/03/12 06:42:01;;;;;;;15.90;12.70;;;;;;;;;;5050412;28;20382;-55
2024/03/12 06:44:27;;;;;;;13.00;8.23;;;;;;;;;;5050207;28;20028;-58
2024/03/12 06:46:53;;;;;;;13.73;9.27;;;;;;;;;;5068783;28;20059;-56
2024/03/12 06:49:22;;;;;;;13.93;9.50;;;;;;;;;;5068642;28;20028;-57
2024/03/12 06:51:48;;;;;;;16.98;14.02;;;;;;;;;;5039057;28;20028;-57
2024/03/12 06:54:15;;;;;;;16.80;10.82;;;;;;;;;;5066108;28;20047;-56
2024/03/12 06:56:42;;;;;;;14.00;9.35;;;;;;;;;;5069162;28;20523;-56
2024/03/12 06:59:10;;;;;;;13.70;9.07;;;;;;;;;;5063141;28;20039;-55
2024/03/12 07:01:43;;;;;;;16.38;11.07;;;;;;;;;;5047782;28;20493;-56
2024/03/12 07:04:09;;;;;;;13.80;9.30;;;;;;;;;;5047947;28;20413;-55
2024/03/12 07:06:37;;;;;;;13.80;9.30;;;;;;;;;;5048144;28;20064;-58
2024/03/12 07:09:09;;;;;;;14.07;9.90;;;;;;;;;;5046961;28;20024;-60
2024/03/12 07:11:39;;;;;;;14.40;10.15;;;;;;;;;;5069011;28;20101;-57
2024/03/12 07:14:32;;;;;;;13.63;8.95;;;;;;;;;;5067929;28;20375;-59
2024/03/12 07:16:55;;;;;;;20.27;16.08;;;;;;;;;;5067880;28;20053;-60
2024/03/12 07:19:25;;;;;;;15.05;11.30;;;;;;;;;;5069180;28;20024;-56
2024/03/12 07:21:54;;;;;;;15.32;11.30;;;;;;;;;;5067976;28;20048;-58
2024/03/12 07:24:20;;;;;;;13.70;8.90;;;;;;;;;;5065728;28;20040;-54
2024/03/12 07:26:49;;;;;;;17.40;11.80;;;;;;;;;;5030174;28;20099;-58
2024/03/12 07:29:15;;;;;;;13.77;9.18;;;;;;;;;;5047953;28;20025;-55
2024/03/12 07:31:41;;;;;;;15.55;10.55;;;;;;;;;;5048057;28;20029;-57
2024/03/12 07:34:07;;;;;;;14.10;10.00;;;;;;;;;;5047602;28;20032;-58
2024/03/12 07:36:33;;;;;;;14.57;10.00;;;;;;;;;;5049221;28;20040;-58
2024/03/12 07:39:00;;;;;;;14.07;9.38;;;;;;;;;;5052121;28;20021;-55
2024/03/12 07:41:26;;;;;;;14.50;10.50;;;;;;;;;;5051798;28;20024;-56
2024/03/12 07:43:52;;;;;;;14.30;10.13;;;;;;;;;;5051687;28;20033;-52
2024/03/12 07:46:18;;;;;;;13.65;8.95;;;;;;;;;;5034033;28;20532;-55
2024/03/12 07:48:45;;;;;;;13.75;9.10;;;;;;;;;;5051464;28;20017;-56
2024/03/12 07:51:11;;;;;;;15.38;10.68;;;;;;;;;;5056457;28;20029;-56
2024/03/12 07:53:37;;;;;;;15.43;10.82;;;;;;;;;;5071099;28;20040;-56
2024/03/12 07:56:05;;;;;;;18.05;10.57;;;;;;;;;;5071422;28;20044;-58
2024/03/12 07:58:31;;;;;;;15.15;10.98;;;;;;;;;;5071840;28;20055;-56
2024/03/12 08:00:57;;;;;;;20.10;11.95;;;;;;;;;;5072067;28;20536;-54
2024/03/12 08:03:23;;;;;;;15.05;10.13;;;;;;;;;;5071538;28;20032;-58
2024/03/12 08:05:49;;;;;;;17.38;12.25;;;;;;;;;;5054282;28;20109;-58
2024/03/12 08:08:15;;;;;;;13.98;10.02;;;;;;;;;;5071904;28;20048;-58
2024/03/12 08:10:41;;;;;;;14.10;9.65;;;;;;;;;;5071715;28;20142;-58
2024/03/12 08:13:08;;;;;;;14.40;10.60;;;;;;;;;;5070925;28;20130;-55
2024/03/12 08:15:34;;;;;;;15.05;10.80;;;;;;;;;;5071499;28;20050;-60
2024/03/12 08:18:05;;;;;;;14.00;10.02;;;;;;;;;;5071476;28;20494;-58
2024/03/12 08:20:31;;;;;;;14.20;10.40;;;;;;;;;;5071328;28;20055;-57
2024/03/12 08:22:59;;;;;;;14.15;10.30;;;;;;;;;;5070997;28;20043;-58
2024/03/12 08:25:25;;;;;;;16.40;11.80;;;;;;;;;;5071735;28;20024;-59
2024/03/12 08:27:51;;;;;;;17.60;14.52;;;;;;;;;;5071706;28;20020;-54
2024/03/12 08:30:18;;;;;;;14.75;11.20;;;;;;;;;;5071788;28;20020;-60
2024/03/12 08:32:44;;;;;;;15.98;11.85;;;;;;;;;;5070915;28;20021;-59
2024/03/12 08:35:11;;;;;;;16.83;13.70;;;;;;;;;;5071188;28;20024;-59
2024/03/12 08:37:40;;;;;;;16.77;14.70;;;;;;;;;;5053405;28;20520;-58
2024/03/12 08:40:07;;;;;;;15.30;13.60;;;;;;;;;;5071187;28;20036;-59
2024/03/12 08:42:33;;;;;;;18.40;15.77;;;;;;;;;;5070419;28;20029;-56
2024/03/12 08:44:59;;;;;;;16.05;14.35;;;;;;;;;;5071273;28;20075;-54
2024/03/12 08:47:25;;;;;;;26.27;17.08;;;;;;;;;;5070507;28;20024;-55
2024/03/12 08:49:51;;;;;;;17.13;15.32;;;;;;;;;;5071045;28;20077;-62
2024/03/12 08:52:17;;;;;;;19.98;17.88;;;;;;;;;;5070069;28;20035;-57
2024/03/12 08:54:43;;;;;;;22.48;20.48;;;;;;;;;;5070612;28;20078;-57
2024/03/12 08:57:09;;;;;;;19.80;17.70;;;;;;;;;;5070802;28;20430;-56
2024/03/12 08:59:35;;;;;;;19.25;17.45;;;;;;;;;;5070537;28;20060;-58
2024/03/12 09:02:02;;;;;;;22.52;20.35;;;;;;;;;;5070340;28;20031;-54
2024/03/12 09:04:30;;;;;;;23.63;21.52;;;;;;;;;;5051979;28;20027;-55
2024/03/12 09:06:57;;;;;;;20.63;18.63;;;;;;;;;;5070502;28;20409;-56
2024/03/12 09:09:26;;;;;;;16.83;15.02;;;;;;;;;;5070663;28;20432;-55
2024/03/12 09:11:53;;;;;;;18.00;16.10;;;;;;;;;;5070276;28;20100;-52
2024/03/12 09:14:21;;;;;;;21.75;19.75;;;;;;;;;;5069706;28;20044;-55
2024/03/12 09:16:48;;;;;;;22.17;20.05;;;;;;;;;;5070537;28;20025;-54
2024/03/12 09:19:15;;;;;;;20.88;18.15;;;;;;;;;;5069892;28;20027;-54
2024/03/12 09:21:42;;;;;;;18.20;16.40;;;;;;;;;;5069789;28;20020;-57
2024/03/12 09:24:09;;;;;;;17.75;15.95;;;;;;;;;;5069777;28;20032;-55
2024/03/12 09:26:35;;;;;;;19.00;17.00;;;;;;;;;;5051958;28;20044;-57
2024/03/12 09:29:01;;;;;;;19.45;17.55;;;;;;;;;;5070129;28;20025;-57
2024/03/12 09:31:27;;;;;;;16.25;14.55;;;;;;;;;;5069904;28;20028;-56
2024/03/12 09:33:54;;;;;;;16.50;14.80;;;;;;;;;;5069354;28;20025;-53
2024/03/12 09:36:20;;;;;;;17.13;15.43;;;;;;;;;;5070210;28;20024;-56
2024/03/12 09:38:47;;;;;;;18.88;16.90;;;;;;;;;;5052101;28;20035;-57
2024/03/12 09:41:16;;;;;;;20.27;18.13;;;;;;;;;;5069844;28;20021;-58
2024/03/12 09:43:43;;;;;;;18.02;16.23;;;;;;;;;;5069241;28;20032;-55
2024/03/12 09:46:11;;;;;;;19.27;17.30;;;;;;;;;;5051910;28;20050;-55
2024/03/12 09:48:38;;;;;;;17.80;16.00;;;;;;;;;;5069931;28;20043;-54
2024/03/12 09:51:05;;;;;;;18.85;16.50;;;;;;;;;;5069562;28;20052;-53
2024/03/12 09:53:31;;;;;;;17.63;15.93;;;;;;;;;;5069024;28;20031;-53
2024/03/12 09:56:06;;;;;;;30.35;19.83;;;;;;;;;;5047228;28;20091;-57
2024/03/12 09:58:33;;;;;;;16.70;15.00;;;;;;;;;;5030976;28;20116;-54
2024/03/12 10:01:02;;;;;;;16.25;14.55;;;;;;;;;;5049114;28;20029;-54
2024/03/12 10:03:29;;;;;;;21.35;19.45;;;;;;;;;;5048737;28;20017;-54
2024/03/12 10:05:55;;;;;;;20.05;17.40;;;;;;;;;;5049198;28;20021;-54
2024/03/12 10:08:28;;;;;;;23.17;18.13;;;;;;;;;;5049522;28;20096;-55
2024/03/12 10:10:54;;;;;;;17.20;15.50;;;;;;;;;;5049669;28;20494;-52
2024/03/12 10:13:21;;;;;;;22.48;19.77;;;;;;;;;;5048507;28;20073;-56
2024/03/12 10:15:50;;;;;;;22.63;17.42;;;;;;;;;;5049378;28;20052;-54
2024/03/12 10:18:17;;;;;;;20.95;18.40;;;;;;;;;;5049138;28;20103;-53
2024/03/12 10:20:46;;;;;;;18.67;16.88;;;;;;;;;;5049204;28;20406;-57
2024/03/12 10:23:15;;;;;;;20.85;18.85;;;;;;;;;;5048337;28;20455;-55
2024/03/12 10:25:41;;;;;;;;;;;;;;;;;;5049260;28;20021;-52
2024/03/12 10:28:08;;;;;;;25.80;20.35;;;;;;;;;;5049178;28;19913;-57
2024/03/12 10:30:38;;;;;;;20.75;18.75;;;;;;;;;;5030915;28;20029;-57
2024/03/12 10:33:17;;;;;;;20.42;18.30;;;;;;;;;;5048384;28;20067;-55
2024/03/12 10:35:44;;;;;;;16.73;15.02;;;;;;;;;;5048996;28;20100;-56
2024/03/12 10:38:14;;;;;;;26.83;21.05;;;;;;;;;;5031356;28;20029;-56
2024/03/12 10:40:41;;;;;;;18.92;17.00;;;;;;;;;;5048850;28;20021;-57
2024/03/12 10:43:08;;;;;;;18.45;16.65;;;;;;;;;;5048039;28;20025;-54
2024/03/12 10:45:34;;;;;;;19.83;17.05;;;;;;;;;;5048377;28;20652;-56
2024/03/12 10:48:00;;;;;;;15.95;14.25;;;;;;;;;;5048511;28;20548;-57
2024/03/12 10:50:26;;;;;;;21.63;17.95;;;;;;;;;;5048625;28;20471;-58
2024/03/12 10:52:57;;;;;;;19.33;17.42;;;;;;;;;;5060198;28;20032;-59
2024/03/12 10:55:23;;;;;;;17.65;15.85;;;;;;;;;;5068583;28;20032;-58
2024/03/12 10:57:53;;;;;;;17.35;15.43;;;;;;;;;;5068269;28;20086;-53
2024/03/12 11:00:26;;;;;;;16.65;14.90;;;;;;;;;;5068629;28;20031;-54
2024/03/12 11:02:53;;;;;;;16.85;15.15;;;;;;;;;;5066887;28;20132;-58
2024/03/12 11:05:20;;;;;;;17.92;16.13;;;;;;;;;;5049840;28;20103;-54
2024/03/12 11:07:47;;;;;;;17.80;15.93;;;;;;;;;;5068315;28;20497;-52
2024/03/12 11:10:14;;;;;;;18.17;16.35;;;;;;;;;;5068005;28;20383;-54
2024/03/12 11:12:42;;;;;;;16.20;14.50;;;;;;;;;;5067388;28;20024;-55
2024/03/12 11:15:09;;;;;;;;;;;;;;;;;;5066783;28;20071;-55
2024/03/12 11:17:37;;;;;;;18.67;15.32;;;;;;;;;;5048207;28;19905;-53
2024/03/12 11:20:05;;;;;;;16.02;14.32;;;;;;;;;;5066436;28;20090;-59
2024/03/12 11:22:34;;;;;;;16.98;15.23;;;;;;;;;;5065496;28;20056;-55
2024/03/12 11:25:04;;;;;;;17.80;16.00;;;;;;;;;;5066415;28;20046;-55
2024/03/12 11:27:33;;;;;;;17.38;15.45;;;;;;;;;;5066154;28;20029;-52
2024/03/12 11:30:08;;;;;;;15.43;13.73;;;;;;;;;;5067342;28;20486;-55
2024/03/12 11:32:34;;;;;;;16.80;15.02;;;;;;;;;;5067049;28;20073;-54
2024/03/12 11:35:08;;;;;;;15.52;13.60;;;;;;;;;;5067737;28;20048;-53
2024/03/12 11:37:35;;;;;;;15.98;14.18;;;;;;;;;;5068245;28;20412;-59
2024/03/12 11:40:41;;;;;;;17.60;15.80;;;;;;;;;;5067719;28;20027;-54
2024/03/12 11:43:16;;;;;;;19.48;17.25;;;;;;;;;;5060831;28;20041;-57
2024/03/12 11:45:45;;;;;;;14.90;12.57;;;;;;;;;;5067831;28;20494;-58
2024/03/12 11:48:12;;;;;;;15.27;12.80;;;;;;;;;;5067795;28;20036;-57
2024/03/12 11:50:39;;;;;;;18.52;13.85;;;;;;;;;;5050029;28;20398;-55
2024/03/12 11:53:14;;;;;;;14.90;12.55;;;;;;;;;;5066856;28;20104;-53
2024/03/12 11:55:57;;;;;;;16.05;14.35;;;;;;;;;;5067610;28;20517;-58
2024/03/12 11:58:33;;;;;;;16.35;14.65;;;;;;;;;;5067991;28;20034;-56
2024/03/12 12:01:03;;;;;;;16.95;13.93;;;;;;;;;;5068102;28;20094;-54
2024/03/12 12:03:29;;;;;;;18.77;15.00;;;;;;;;;;5066105;28;20029;-55
2024/03/12 12:05:55;;;;;;;14.60;11.80;;;;;;;;;;5067741;28;20035;-56
2024/03/12 12:08:22;;;;;;;15.88;13.43;;;;;;;;;;5050152;28;20118;-55
2024/03/12 12:10:57;;;;;;;14.30;10.15;;;;;;;;;;5068056;28;20024;-54
2024/03/12 12:13:23;;;;;;;13.80;9.30;;;;;;;;;;5049362;28;20024;-58
2024/03/12 12:16:02;;;;;;;18.38;15.60;;;;;;;;;;5067925;28;20027;-53
2024/03/12 12:18:31;;;;;;;13.85;9.40;;;;;;;;;;5067900;28;20032;-53
2024/03/12 12:20:58;;;;;;;15.02;10.20;;;;;;;;;;5067666;28;20036;-54
2024/03/12 12:23:25;;;;;;;13.93;9.50;;;;;;;;;;5069300;28;20115;-56
2024/03/12 12:25:54;;;;;;;13.70;9.00;;;;;;;;;;5071015;28;20115;-59
2024/03/12 12:28:19;;;;;;;;;;;;;;;;;;5053335;28;20458;-55
2024/03/12 12:30:46;;;;;;;13.57;8.77;;;;;;;;;;5070967;28;19908;-59
2024/03/12 12:33:13;;;;;;;13.68;9.02;;;;;;;;;;5070364;28;20025;-55
2024/03/12 12:35:41;;;;;;;14.85;9.35;;;;;;;;;;5071051;28;20035;-55
2024/03/12 12:38:07;;;;;;;13.68;8.90;;;;;;;;;;5071255;28;20024;-56
2024/03/12 12:40:33;;;;;;;14.10;9.65;;;;;;;;;;5052952;28;20025;-55
2024/03/12 12:42:59;;;;;;;13.80;9.43;;;;;;;;;;5070068;28;20016;-57
2024/03/12 12:45:26;;;;;;;17.73;11.18;;;;;;;;;;5070734;28;20103;-59
2024/03/12 12:47:52;;;;;;;23.10;10.60;;;;;;;;;;5070892;28;20023;-57
2024/03/12 12:50:25;;;;;;;14.38;10.40;;;;;;;;;;5070741;28;20034;-57
2024/03/12 12:52:55;;;;;;;16.70;10.32;;;;;;;;;;5070049;28;20027;-59
2024/03/12 12:55:21;;;;;;;16.77;11.60;;;;;;;;;;5070569;28;20048;-55
2024/03/12 12:57:57;;;;;;;14.52;9.25;;;;;;;;;;5070749;28;20036;-54
2024/03/12 13:00:24;;;;;;;17.83;10.23;;;;;;;;;;5053116;28;20035;-55
2024/03/12 13:02:49;;;;;;;17.80;11.15;;;;;;;;;;5068791;28;20025;-57
2024/03/12 13:05:19;;;;;;;15.82;10.02;;;;;;;;;;5069453;28;20428;-56
2024/03/12 13:07:45;;;;;;;13.10;8.10;;;;;;;;;;5069199;28;20029;-56
2024/03/12 13:10:18;;;;;;;16.65;10.35;;;;;;;;;;5068510;28;20031;-58
2024/03/12 13:12:44;;;;;;;13.30;8.10;;;;;;;;;;5051633;28;20521;-56
2024/03/12 13:15:26;;;;;;;14.65;9.73;;;;;;;;;;5070666;28;20032;-57
2024/03/12 13:17:52;;;;;;;13.30;8.35;;;;;;;;;;5070698;28;20028;-57
2024/03/12 13:20:21;;;;;;;15.73;8.73;;;;;;;;;;5070474;28;20066;-55
2024/03/12 13:22:51;;;;;;;14.85;9.73;;;;;;;;;;5069753;28;20393;-53
2024/03/12 13:25:20;;;;;;;14.27;9.10;;;;;;;;;;5070353;28;20541;-57
2024/03/12 13:27:46;;;;;;;15.10;9.88;;;;;;;;;;5052315;28;20028;-52
2024/03/12 13:30:16;;;;;;;16.08;9.55;;;;;;;;;;5052135;28;20108;-58
2024/03/12 13:32:45;;;;;;;12.80;7.50;;;;;;;;;;5069279;28;20020;-58
2024/03/12 13:35:11;;;;;;;13.52;8.50;;;;;;;;;;5070039;28;20482;-58
2024/03/12 13:37:39;;;;;;;13.40;8.20;;;;;;;;;;5070199;28;20025;-58
2024/03/12 13:40:05;;;;;;;13.38;8.40;;;;;;;;;;5069998;28;20047;-58
2024/03/12 13:42:32;;;;;;;13.38;7.93;;;;;;;;;;5069028;28;20121;-56
2024/03/12 13:44:58;;;;;;;13.25;7.90;;;;;;;;;;5069589;28;20383;-57
2024/03/12 13:47:25;;;;;;;12.95;7.63;;;;;;;;;;5069515;28;20020;-58
2024/03/12 13:49:52;;;;;;;13.60;8.63;;;;;;;;;;5069647;28;20096;-57
2024/03/12 13:52:18;;;;;;;13.00;7.90;;;;;;;;;;5050972;28;20028;-59
2024/03/12 13:54:44;;;;;;;16.58;10.52;;;;;;;;;;5070097;28;20581;-55
2024/03/12 13:57:11;;;;;;;12.80;7.60;;;;;;;;;;5070347;28;20048;-58
2024/03/12 13:59:38;;;;;;;12.55;7.38;;;;;;;;;;5069972;28;20032;-58
2024/03/12 14:02:07;;;;;;;12.85;7.50;;;;;;;;;;5069887;28;20051;-55
2024/03/12 14:04:33;;;;;;;15.18;9.25;;;;;;;;;;5069912;28;20013;-54
2024/03/12 14:06:59;;;;;;;13.35;7.90;;;;;;;;;;5070073;28;20163;-58
2024/03/12 14:09:27;;;;;;;13.48;8.20;;;;;;;;;;5043166;28;20025;-56
2024/03/12 14:11:53;;;;;;;13.32;8.10;;;;;;;;;;5048813;28;20052;-56
2024/03/12 14:14:19;;;;;;;17.15;8.65;;;;;;;;;;5049086;28;20061;-55
2024/03/12 14:16:45;;;;;;;13.50;8.25;;;;;;;;;;5048943;28;20028;-57
2024/03/12 14:19:11;;;;;;;13.60;8.60;;;;;;;;;;5049130;28;20060;-58
2024/03/12 14:21:37;;;;;;;13.43;8.00;;;;;;;;;;5048719;28;20057;-56
2024/03/12 14:24:03;;;;;;;13.50;8.45;;;;;;;;;;5048513;28;20073;-57
2024/03/12 14:26:29;;;;;;;13.88;9.00;;;;;;;;;;5031010;28;20100;-54
2024/03/12 14:28:55;;;;;;;14.30;9.25;;;;;;;;;;5049254;28;20071;-57
2024/03/12 14:31:21;;;;;;;13.50;8.35;;;;;;;;;;5049066;28;20032;-55
2024/03/12 14:33:47;;;;;;;14.95;10.93;;;;;;;;;;5030845;28;20029;-54